Flight Track Log - Related Links

Times and Time Zones

All times are in EDT time to prevent confusion due to time zone crossing. See the CTL18 flight status page for this flight to view local times or setup timezone preferences in your user account.

Time Position Orientation Groundspeed Altitude Reporting Facility
EDT Latitude Longitude Course Direction KTS MPH feet Rate Location/Type
Wed 09:07:42 PM 42.2725 -83.5997 296° West 139 160 2,900  Level Cleveland Center
Wed 09:08:36 PM 42.2947 -83.6289 316° Northwest 144 166 3,800 835 Climbing Cleveland Center
Wed 09:09:37 PM 42.2936 -83.5925 92° East 117 135 4,500 590 Climbing Cleveland Center
Wed 09:10:38 PM 42.2758 -83.5550 123° Southeast 125 144 5,000 246 Climbing Cleveland Center
Wed 09:11:39 PM 42.2542 -83.5092 123° Southeast 152 175 5,000 49 Level Cleveland Center
Wed 09:12:40 PM 42.2303 -83.4603 123° Southeast 147 169 5,100 52 Climbing Cleveland Center
Wed 09:13:34 PM 42.2064 -83.4172 127° Southeast 154 177 5,100  Level Cleveland Center
Wed 09:14:41 PM 42.1742 -83.3653 130° Southeast 160 184 5,100  Level Cleveland Center
Wed 09:15:36 PM 42.1525 -83.3225 124° Southeast 158 182 5,100 -49 Level Cleveland Center
Wed 09:16:43 PM 42.1244 -83.2681 125° Southeast 161 185 5,000  Descending Cleveland Center
Wed 09:17:44 PM 42.0986 -83.2136 123° Southeast 164 189 5,100 52 Climbing Cleveland Center
Wed 09:18:38 PM 42.0767 -83.1681 123° Southeast 165 190 5,100  Level Cleveland Center
Wed 09:19:45 PM 42.0403 -83.1192 135° Southeast 159 183 5,100 -47 Level Cleveland Center
Wed 09:20:46 PM 42.0075 -83.0897 146° Southeast 156 180 5,000 -49 Descending Cleveland Center
Wed 09:21:47 PM 41.9858 -83.0303 116° Southeast 171 197 5,000  Level Cleveland Center
Wed 09:22:49 PM 41.9619 -82.9792 122° Southeast 168 193 5,000 49 Level Cleveland Center
Wed 09:23:49 PM 41.9425 -82.9197 114° Southeast 176 203 5,100 50 Climbing Cleveland Center
Wed 09:24:50 PM 41.9208 -82.8575 115° Southeast 175 201 5,100  Level Cleveland Center
Wed 09:25:51 PM 41.8989 -82.7953 115° Southeast 181 208 5,100 -50 Level Cleveland Center
Wed 09:26:51 PM 41.8772 -82.7333 115° Southeast 183 211 5,000  Descending Cleveland Center
Wed 09:28:00 PM 41.8619 -82.6769 110° East  Level FlightAware Approximate
Wed 09:28:52 PM 41.8356 -82.6119 110° East 180 207 5,100  Level Cleveland Center
Wed 09:29:53 PM 41.8158 -82.5528 114° Southeast 180 207 5,100  Level Cleveland Center
Wed 09:30:54 PM 41.7983 -82.4828 109° East 182 209 5,100 -50 Level Cleveland Center
Wed 09:31:54 PM 41.7806 -82.4181 110° East 181 208 5,000 -198 Descending Cleveland Center
Wed 09:32:55 PM 41.7628 -82.3536 110° East 190 219 4,700 -295 Descending Cleveland Center
Wed 09:33:56 PM 41.7450 -82.2892 110° East 189 217 4,400 -347 Descending Cleveland Center
Wed 09:34:56 PM 41.7272 -82.2247 110° East 183 211 4,000 -397 Descending Cleveland Center
Wed 09:35:57 PM 41.7114 -82.1575 107° East 179 206 3,600 -347 Descending Cleveland Center
Wed 09:36:57 PM 41.6997 -82.0989 105° East 170 196 3,300 -298 Descending Cleveland Center
Wed 09:37:58 PM 41.6839 -82.0428 111° Southeast 160 184 3,000 -344 Descending Cleveland Center
Wed 09:38:59 PM 41.6678 -81.9897 112° Southeast 155 178 2,600 -347 Descending Cleveland Center
Wed 09:39:59 PM 41.6539 -81.9308 108° East 155 178 2,300 -347 Descending Cleveland Center
Wed 09:41:00 PM 41.6317 -81.8833 122° Southeast 151 174 1,900 -298 Descending Cleveland Center
Wed 09:42:00 PM 41.6050 -81.8411 130° Southeast 147 169 1,700 -149 Descending Cleveland Center
Wed 09:43:01 PM 41.5761 -81.8017 134° Southeast 146 168 1,600 -49 Descending Cleveland Center
Wed 09:44:02 PM 41.5517 -81.7622 130° Southeast 137 158 1,600 -99 Level Cleveland Center
Wed 09:45:02 PM 41.5269 -81.7258 132° Southeast 132 152 1,400 -200 Descending Cleveland Center
Wed 09:47:00 PM 41.5175 -81.6833 112° Southeast  Level Estimated
Wed 09:54:00 PM 41.5175 -81.6833 112° Southeast  Level Estimated

Login

Don't have an account? Register now (free) for customized features, flight alerts, and more!